createdAt,value
2018-12-15T00:01:56.735Z,19.67
2018-12-15T00:04:25.605Z,20.03
2018-12-15T00:06:53.766Z,20.70
2018-12-15T00:09:21.944Z,21.77
2018-12-15T00:11:50.110Z,20.43
2018-12-15T00:14:18.252Z,20.87
2018-12-15T00:16:46.425Z,21.60
2018-12-15T00:19:14.558Z,19.83
2018-12-15T00:21:43.292Z,20.77
2018-12-15T00:24:11.483Z,20.60
2018-12-15T00:26:39.632Z,21.87
2018-12-15T00:29:07.763Z,21.03
2018-12-15T00:31:35.892Z,21.93
2018-12-15T00:34:04.046Z,19.90
2018-12-15T00:36:32.260Z,20.83
2018-12-15T00:39:00.418Z,20.73
2018-12-15T00:41:28.654Z,21.10
2018-12-15T00:43:56.826Z,20.90
2018-12-15T00:46:24.998Z,20.77
2018-12-15T00:48:53.378Z,21.53
2018-12-15T00:51:21.551Z,21.60
2018-12-15T00:53:49.693Z,21.57
2018-12-15T00:56:17.854Z,20.37
2018-12-15T00:58:45.978Z,21.97
2018-12-15T01:01:14.135Z,20.87
2018-12-15T01:03:42.270Z,21.30
2018-12-15T01:06:10.460Z,21.73
2018-12-15T01:08:39.174Z,21.03
2018-12-15T01:11:07.302Z,21.37
2018-12-15T01:13:35.446Z,21.97
2018-12-15T01:16:03.617Z,21.37
2018-12-15T01:18:32.210Z,21.57
2018-12-15T01:21:00.355Z,21.80
2018-12-15T01:23:35.064Z,22.33
2018-12-15T01:26:03.286Z,21.07
2018-12-15T01:28:31.422Z,22.23
2018-12-15T01:30:59.606Z,22.67
2018-12-15T01:33:27.743Z,21.97
2018-12-15T01:35:56.063Z,22.40
2018-12-15T01:38:24.222Z,22.07
2018-12-15T01:40:52.398Z,21.30
2018-12-15T01:43:20.574Z,22.93
2018-12-15T01:45:48.738Z,21.57
2018-12-15T01:48:16.895Z,22.93
2018-12-15T01:50:45.106Z,22.73
2018-12-15T01:53:13.453Z,23.57
2018-12-15T01:55:41.651Z,22.07
2018-12-15T01:58:09.855Z,23.07
2018-12-15T02:00:39.082Z,22.67
2018-12-15T02:03:07.238Z,23.87
2018-12-15T02:05:35.405Z,23.43
2018-12-15T02:08:03.533Z,24.00
2018-12-15T02:10:31.711Z,23.87
2018-12-15T02:12:59.829Z,23.17
2018-12-15T02:15:28.027Z,23.53
2018-12-15T02:17:56.167Z,24.23
2018-12-15T02:20:24.725Z,24.77
2018-12-15T02:22:52.937Z,24.00
2018-12-15T02:25:21.198Z,23.00
2018-12-15T02:27:49.346Z,23.90
2018-12-15T02:30:17.518Z,24.00
2018-12-15T02:32:45.690Z,24.10
2018-12-15T02:35:13.854Z,24.33
2018-12-15T02:37:41.995Z,24.37
2018-12-15T02:40:10.211Z,23.80
2018-12-15T02:42:38.615Z,24.33
2018-12-15T02:45:06.875Z,24.40
2018-12-15T02:47:41.386Z,23.00
2018-12-15T02:50:05.305Z,22.23
2018-12-15T02:52:33.681Z,23.93
2018-12-15T02:55:01.873Z,23.83
2018-12-15T02:57:30.131Z,23.97
2018-12-15T02:59:58.273Z,22.77
2018-12-15T03:02:26.432Z,23.37
2018-12-15T03:04:54.614Z,24.37
2018-12-15T03:07:22.808Z,23.73
2018-12-15T03:09:50.975Z,23.37
2018-12-15T03:12:19.135Z,24.33
2018-12-15T03:14:47.396Z,23.60
2018-12-15T03:17:15.558Z,24.80
2018-12-15T03:19:43.704Z,23.33
2018-12-15T03:22:11.868Z,24.07
2018-12-15T03:24:40.005Z,24.80
2018-12-15T03:27:08.193Z,24.80
2018-12-15T03:29:36.354Z,24.43
2018-12-15T03:32:04.694Z,24.83
2018-12-15T03:34:32.986Z,24.20
2018-12-15T03:37:01.140Z,24.77
2018-12-15T03:39:29.285Z,23.80
2018-12-15T03:41:57.434Z,23.60
2018-12-15T03:44:25.567Z,25.37
2018-12-15T03:46:53.822Z,25.50
2018-12-15T03:49:21.954Z,24.57
2018-12-15T03:51:50.090Z,26.13
2018-12-15T03:54:18.345Z,23.87
2018-12-15T03:56:46.470Z,24.67
2018-12-15T03:59:14.627Z,25.33
2018-12-15T04:01:42.788Z,24.20
2018-12-15T04:04:10.929Z,25.30
2018-12-15T04:06:39.074Z,23.93
2018-12-15T04:09:07.539Z,23.87
2018-12-15T04:11:36.225Z,25.57
2018-12-15T04:14:04.700Z,25.80
2018-12-15T04:16:32.870Z,23.87
2018-12-15T04:19:01.018Z,24.80
2018-12-15T04:21:29.147Z,24.83
2018-12-15T04:23:57.322Z,24.57
2018-12-15T04:26:25.493Z,25.47
2018-12-15T04:28:53.636Z,24.67
2018-12-15T04:31:21.782Z,26.40
2018-12-15T04:33:49.933Z,25.70
2018-12-15T04:36:18.822Z,25.73
2018-12-15T04:38:46.957Z,25.47
2018-12-15T04:41:15.109Z,26.13
2018-12-15T04:43:43.435Z,26.00
2018-12-15T04:46:12.551Z,26.20
2018-12-15T04:48:40.686Z,26.40
2018-12-15T04:51:08.843Z,26.10
2018-12-15T04:53:36.998Z,25.67
2018-12-15T04:56:05.147Z,26.47
2018-12-15T04:58:33.302Z,27.17
2018-12-15T05:01:01.473Z,26.70
2018-12-15T05:03:29.604Z,26.33
2018-12-15T05:05:57.722Z,27.23
2018-12-15T05:08:25.875Z,24.83
2018-12-15T05:10:54.035Z,26.53
2018-12-15T05:13:22.149Z,26.60
2018-12-15T05:15:50.354Z,25.33
2018-12-15T05:18:18.689Z,26.80
2018-12-15T05:20:47.038Z,26.30
2018-12-15T05:25:44.154Z,26.40
2018-12-15T05:28:12.306Z,28.50
2018-12-15T05:30:40.460Z,27.83
2018-12-15T05:33:08.595Z,28.97
2018-12-15T05:35:36.753Z,27.67
2018-12-15T05:38:04.909Z,27.03
2018-12-15T05:40:33.091Z,28.10
2018-12-15T05:43:01.258Z,28.07
2018-12-15T05:45:29.443Z,25.87
2018-12-15T05:47:57.681Z,26.50
2018-12-15T05:50:25.841Z,27.77
2018-12-15T05:52:54.078Z,27.23
2018-12-15T05:55:23.167Z,28.00
2018-12-15T05:57:51.322Z,27.00
2018-12-15T06:00:19.519Z,26.50
2018-12-15T06:02:47.915Z,27.27
2018-12-15T06:05:16.254Z,28.17
2018-12-15T06:07:44.638Z,27.47
2018-12-15T06:10:12.843Z,26.47
2018-12-15T06:12:40.994Z,27.13
2018-12-15T06:15:09.137Z,27.80
2018-12-15T06:17:37.274Z,27.80
2018-12-15T06:20:05.480Z,29.13
2018-12-15T06:22:33.720Z,28.50
2018-12-15T06:25:02.138Z,27.93
2018-12-15T06:27:30.390Z,27.93
2018-12-15T06:29:58.547Z,26.97
2018-12-15T06:32:27.228Z,29.00
2018-12-15T06:34:55.374Z,27.60
2018-12-15T06:37:23.523Z,28.10
2018-12-15T06:39:51.678Z,27.30
2018-12-15T06:42:19.832Z,26.30
2018-12-15T06:44:48.103Z,26.83
2018-12-15T06:47:16.248Z,25.50
2018-12-15T06:49:44.506Z,24.47
2018-12-15T06:52:12.647Z,24.27
2018-12-15T06:54:40.820Z,24.17
2018-12-15T06:57:09.007Z,25.23
2018-12-15T06:59:37.242Z,23.67
2018-12-15T07:02:05.397Z,23.87
2018-12-15T07:04:33.673Z,23.27
2018-12-15T07:07:01.896Z,23.07
2018-12-15T07:09:30.022Z,23.93
2018-12-15T07:11:58.207Z,21.70
2018-12-15T07:14:26.327Z,24.07
2018-12-15T07:16:54.484Z,22.17
2018-12-15T07:19:22.623Z,22.33
2018-12-15T07:21:50.759Z,22.03
2018-12-15T07:24:18.910Z,22.27
2018-12-15T07:26:47.063Z,21.40
2018-12-15T07:29:15.218Z,21.80
2018-12-15T07:31:43.346Z,21.67
2018-12-15T07:34:11.507Z,21.47
2018-12-15T07:36:39.851Z,21.13
2018-12-15T07:39:08.225Z,20.40
2018-12-15T07:41:36.386Z,19.93
2018-12-15T07:44:04.529Z,19.63
2018-12-15T07:46:32.682Z,18.03
2018-12-15T07:49:00.861Z,18.70
2018-12-15T07:51:29.015Z,18.40
2018-12-15T07:53:57.161Z,17.87
2018-12-15T07:56:27.423Z,18.53
2018-12-15T07:58:55.565Z,17.80
2018-12-15T08:01:23.725Z,17.10
2018-12-15T08:03:51.889Z,16.57
2018-12-15T08:06:20.138Z,17.00
2018-12-15T08:08:48.274Z,17.73
2018-12-15T08:11:21.821Z,16.90
2018-12-15T08:13:51.971Z,15.47
2018-12-15T08:16:20.166Z,16.90
2018-12-15T08:21:22.933Z,16.33
2018-12-15T08:23:51.102Z,15.87
2018-12-15T08:26:19.342Z,15.30
2018-12-15T08:28:47.556Z,16.23
2018-12-15T08:31:16.222Z,15.93
2018-12-15T08:33:44.371Z,15.07
2018-12-15T08:36:12.537Z,15.57
2018-12-15T08:38:40.678Z,15.67
2018-12-15T08:41:08.838Z,18.70
2018-12-15T08:43:36.991Z,16.13
2018-12-15T08:46:08.331Z,16.50
2018-12-15T08:48:36.482Z,15.47
2018-12-15T08:51:04.937Z,15.37
2018-12-15T08:53:33.132Z,15.80
2018-12-15T08:56:01.276Z,18.57
2018-12-15T08:58:29.415Z,16.57
2018-12-15T09:00:57.549Z,15.77
2018-12-15T09:03:25.714Z,16.13
2018-12-15T09:05:53.885Z,14.80
2018-12-15T09:08:22.059Z,36.33
2018-12-15T09:10:50.210Z,16.53
2018-12-15T09:13:18.383Z,15.57
2018-12-15T09:15:46.555Z,18.17
2018-12-15T09:18:14.754Z,14.63
2018-12-15T09:20:42.914Z,14.93
2018-12-15T09:23:11.103Z,15.40
2018-12-15T09:25:39.395Z,15.70
2018-12-15T09:28:08.091Z,14.90
2018-12-15T09:30:36.395Z,15.67
2018-12-15T09:33:05.153Z,14.57
2018-12-15T09:35:33.367Z,15.33
2018-12-15T09:38:02.163Z,15.40
2018-12-15T09:40:31.339Z,15.93
2018-12-15T09:42:59.466Z,15.47
2018-12-15T09:45:27.643Z,15.20
2018-12-15T09:47:55.830Z,15.80
2018-12-15T09:50:24.084Z,14.77
2018-12-15T09:52:52.351Z,14.90
2018-12-15T09:55:21.143Z,14.97
2018-12-15T09:57:49.314Z,15.30
2018-12-15T10:00:17.518Z,16.27
2018-12-15T10:02:45.755Z,16.10
2018-12-15T10:05:14.337Z,17.13
2018-12-15T10:07:42.514Z,16.00
2018-12-15T10:10:10.667Z,15.43
2018-12-15T10:12:38.814Z,15.10
2018-12-15T10:15:07.339Z,16.53
2018-12-15T10:17:35.504Z,15.03
2018-12-15T10:20:04.170Z,15.93
2018-12-15T10:22:32.379Z,15.57
2018-12-15T10:25:00.620Z,15.87
2018-12-15T10:27:28.771Z,15.57
2018-12-15T10:30:02.318Z,16.10
2018-12-15T10:32:35.991Z,15.27
2018-12-15T10:35:04.500Z,17.37
2018-12-15T10:37:32.688Z,16.17
2018-12-15T10:40:00.847Z,15.87
2018-12-15T10:42:29.027Z,15.57
2018-12-15T10:44:57.169Z,16.37
2018-12-15T10:47:25.390Z,16.17
2018-12-15T10:49:53.647Z,16.20
2018-12-15T10:52:21.879Z,16.80
2018-12-15T10:54:50.083Z,16.40
2018-12-15T10:57:18.230Z,15.13
2018-12-15T10:59:46.411Z,17.23
2018-12-15T11:02:14.566Z,16.37
2018-12-15T11:04:42.741Z,16.10
2018-12-15T11:07:10.895Z,17.27
2018-12-15T11:09:39.064Z,16.77
2018-12-15T11:12:07.225Z,18.40
2018-12-15T11:14:35.390Z,16.57
2018-12-15T11:17:03.587Z,17.23
2018-12-15T11:19:37.123Z,17.67
2018-12-15T11:22:02.081Z,23.83
2018-12-15T11:26:59.242Z,16.60
2018-12-15T11:29:27.738Z,16.00
2018-12-15T11:31:55.897Z,16.13
2018-12-15T11:34:24.091Z,16.50
2018-12-15T11:36:52.737Z,17.70
2018-12-15T11:39:20.898Z,17.93
2018-12-15T11:41:49.091Z,17.27
2018-12-15T11:44:17.311Z,17.30
2018-12-15T11:46:46.078Z,16.80
2018-12-15T11:49:14.223Z,15.77
2018-12-15T11:51:43.606Z,16.80
2018-12-15T11:54:11.765Z,16.03
2018-12-15T11:56:39.918Z,15.70
2018-12-15T11:59:08.209Z,15.87
2018-12-15T12:01:36.562Z,15.80
2018-12-15T12:04:04.782Z,15.93
2018-12-15T12:06:33.525Z,17.00
2018-12-15T12:09:01.798Z,17.77
2018-12-15T12:11:29.939Z,15.53
2018-12-15T12:14:00.506Z,16.17
2018-12-15T12:16:28.722Z,15.17
2018-12-15T12:18:56.888Z,15.60
2018-12-15T12:21:25.083Z,14.67
2018-12-15T12:23:53.787Z,15.53
2018-12-15T12:26:22.209Z,14.33
2018-12-15T12:28:50.369Z,14.37
2018-12-15T12:31:18.877Z,13.50
2018-12-15T12:33:47.341Z,13.10
2018-12-15T12:36:15.876Z,13.60
2018-12-15T12:38:44.262Z,13.97
2018-12-15T12:41:12.984Z,14.30
2018-12-15T12:43:41.546Z,14.80
2018-12-15T12:46:09.998Z,16.10
2018-12-15T12:48:38.426Z,16.60
2018-12-15T12:51:06.922Z,16.33
2018-12-15T12:53:36.000Z,17.40
2018-12-15T12:56:04.621Z,17.47
2018-12-15T12:58:33.773Z,17.53
2018-12-15T13:01:02.224Z,17.53
2018-12-15T13:03:31.161Z,18.07
2018-12-15T13:05:59.593Z,17.87
2018-12-15T13:08:28.137Z,17.63
2018-12-15T13:10:56.552Z,18.80
2018-12-15T13:13:25.029Z,17.90
2018-12-15T13:15:53.830Z,18.23
2018-12-15T13:18:22.317Z,17.33
2018-12-15T13:20:51.333Z,18.57
2018-12-15T13:23:19.780Z,18.77
2018-12-15T13:25:48.470Z,18.37
2018-12-15T13:28:16.949Z,19.27
2018-12-15T13:30:45.729Z,18.93
2018-12-15T13:33:25.405Z,18.20
2018-12-15T13:35:53.816Z,19.13
2018-12-15T13:38:22.214Z,19.63
2018-12-15T13:40:50.649Z,18.67
2018-12-15T13:43:20.007Z,19.97
2018-12-15T13:45:48.448Z,18.67
2018-12-15T13:48:17.000Z,17.67
2018-12-15T13:50:45.784Z,18.87
2018-12-15T13:53:14.498Z,19.50
2018-12-15T13:55:43.000Z,17.50
2018-12-15T13:58:11.430Z,17.63
2018-12-15T14:00:40.272Z,17.37
2018-12-15T14:03:08.670Z,16.63
2018-12-15T14:05:37.085Z,17.87
2018-12-15T14:08:05.515Z,16.43
2018-12-15T14:10:34.088Z,22.47
2018-12-15T14:13:03.201Z,17.13
2018-12-15T14:15:32.202Z,16.10
2018-12-15T14:18:01.299Z,17.27
2018-12-15T14:20:29.706Z,17.23
2018-12-15T14:22:59.404Z,16.73
2018-12-15T14:25:27.843Z,17.30
2018-12-15T14:27:56.663Z,16.80
2018-12-15T14:30:25.178Z,16.43
2018-12-15T14:32:53.595Z,17.97
2018-12-15T14:35:22.132Z,17.57
2018-12-15T14:37:50.575Z,17.40
2018-12-15T14:40:18.996Z,17.40
2018-12-15T14:42:47.450Z,17.13
2018-12-15T14:45:15.946Z,17.70
2018-12-15T14:47:44.938Z,16.80
2018-12-15T14:50:13.631Z,17.43
2018-12-15T14:52:42.176Z,18.57
2018-12-15T14:55:11.519Z,16.93
2018-12-15T14:57:40.167Z,16.90
2018-12-15T15:00:09.967Z,16.43
2018-12-15T15:02:38.526Z,16.60
2018-12-15T15:05:07.296Z,16.70
2018-12-15T15:07:35.731Z,16.13
2018-12-15T15:10:04.870Z,16.60
2018-12-15T15:12:33.383Z,16.57
2018-12-15T15:15:01.935Z,16.70
2018-12-15T15:17:30.378Z,18.23
2018-12-15T15:19:58.797Z,16.60
2018-12-15T15:22:27.223Z,16.93
2018-12-15T15:24:55.614Z,16.40
2018-12-15T15:27:28.315Z,16.83
2018-12-15T15:29:56.744Z,15.67
2018-12-15T15:32:25.273Z,15.80
2018-12-15T15:34:53.699Z,16.77
2018-12-15T15:37:22.156Z,16.57
2018-12-15T15:39:50.628Z,15.77
2018-12-15T15:42:19.684Z,19.30
2018-12-15T15:44:48.668Z,16.37
2018-12-15T15:47:17.523Z,16.23
2018-12-15T15:49:45.916Z,16.00
2018-12-15T15:52:14.374Z,15.40
2018-12-15T15:54:42.839Z,16.43
2018-12-15T15:57:11.226Z,14.67
2018-12-15T15:59:39.665Z,14.83
2018-12-15T16:02:08.193Z,14.93
2018-12-15T16:04:36.640Z,15.07
2018-12-15T16:07:05.150Z,14.80
2018-12-15T16:09:33.702Z,13.80
2018-12-15T16:12:02.097Z,13.27
2018-12-15T16:14:30.683Z,14.07
2018-12-15T16:16:59.267Z,13.90
2018-12-15T16:19:27.932Z,14.03
2018-12-15T16:22:02.888Z,13.80
2018-12-15T16:24:31.387Z,14.70
2018-12-15T16:26:59.868Z,13.97
2018-12-15T16:29:28.273Z,14.27
2018-12-15T16:31:56.719Z,14.20
2018-12-15T16:34:25.205Z,15.20
2018-12-15T16:36:53.737Z,14.93
2018-12-15T16:39:22.119Z,16.10
2018-12-15T16:41:50.512Z,16.40
2018-12-15T16:44:19.184Z,17.20
2018-12-15T16:46:47.651Z,17.50
2018-12-15T16:49:16.099Z,17.70
2018-12-15T16:51:44.629Z,17.70
2018-12-15T16:54:13.097Z,20.50
2018-12-15T16:56:42.072Z,25.90
2018-12-15T16:59:10.553Z,19.97
2018-12-15T17:01:39.035Z,20.67
2018-12-15T17:04:07.447Z,20.33
2018-12-15T17:06:35.878Z,20.57
2018-12-15T17:09:07.297Z,22.47
2018-12-15T17:11:35.791Z,21.57
2018-12-15T17:14:04.339Z,21.70
2018-12-15T17:16:33.471Z,22.50
2018-12-15T17:19:01.903Z,23.40
2018-12-15T17:21:31.067Z,21.73
2018-12-15T17:23:59.562Z,24.70
2018-12-15T17:26:28.051Z,22.70
2018-12-15T17:28:57.753Z,22.90
2018-12-15T17:31:26.539Z,23.50
2018-12-15T17:33:55.111Z,23.73
2018-12-15T17:36:23.661Z,23.30
2018-12-15T17:38:52.184Z,23.90
2018-12-15T17:41:21.335Z,21.97
2018-12-15T17:43:49.800Z,23.27
2018-12-15T17:46:18.279Z,22.40
2018-12-15T17:48:46.710Z,24.40
2018-12-15T17:51:15.972Z,23.57
2018-12-15T17:53:44.405Z,22.87
2018-12-15T17:56:12.921Z,21.70
2018-12-15T17:58:41.455Z,22.47
2018-12-15T18:01:09.871Z,22.07
2018-12-15T18:03:38.293Z,21.10
2018-12-15T18:06:06.757Z,21.50
2018-12-15T18:08:35.551Z,22.47
2018-12-15T18:11:03.993Z,22.00
2018-12-15T18:13:32.425Z,21.30
2018-12-15T18:16:00.839Z,22.47
2018-12-15T18:18:29.946Z,21.90
2018-12-15T18:20:58.451Z,20.93
2018-12-15T18:23:27.259Z,22.53
2018-12-15T18:25:56.078Z,21.47
2018-12-15T18:28:24.502Z,22.60
2018-12-15T18:30:52.985Z,23.17
2018-12-15T18:33:21.452Z,22.27
2018-12-15T18:35:49.864Z,22.83
2018-12-15T18:38:18.303Z,21.17
2018-12-15T18:40:46.729Z,21.33
2018-12-15T18:43:16.729Z,20.63
2018-12-15T18:45:45.155Z,24.87
2018-12-15T18:48:13.962Z,20.97
2018-12-15T18:50:42.434Z,21.10
2018-12-15T18:53:10.865Z,21.13
2018-12-15T18:55:39.298Z,21.50
2018-12-15T18:58:11.955Z,20.00
2018-12-15T19:00:40.506Z,20.10
2018-12-15T19:03:08.921Z,20.80
2018-12-15T19:05:37.368Z,21.27
2018-12-15T19:08:06.004Z,20.37
2018-12-15T19:10:34.462Z,20.47
2018-12-15T19:13:02.898Z,21.07
2018-12-15T19:15:31.318Z,20.47
2018-12-15T19:17:59.855Z,23.10
2018-12-15T19:20:28.349Z,21.40
2018-12-15T19:22:57.509Z,19.83
2018-12-15T19:25:25.923Z,20.87
2018-12-15T19:27:54.689Z,19.73
2018-12-15T19:30:23.139Z,18.90
2018-12-15T19:32:51.616Z,20.27
2018-12-15T19:35:20.147Z,20.63
2018-12-15T19:37:48.600Z,18.60
2018-12-15T19:40:17.045Z,19.37
2018-12-15T19:42:45.493Z,18.93
2018-12-15T19:45:14.399Z,19.27
2018-12-15T19:47:42.816Z,19.00
2018-12-15T19:50:11.222Z,18.83
2018-12-15T19:52:40.152Z,20.07
2018-12-15T19:55:08.576Z,18.90
2018-12-15T19:57:37.007Z,18.73
2018-12-15T20:00:06.271Z,19.63
2018-12-15T20:02:34.705Z,17.37
2018-12-15T20:05:03.244Z,17.67
2018-12-15T20:07:31.706Z,15.80
2018-12-15T20:10:00.145Z,17.40
2018-12-15T20:12:28.558Z,18.63
2018-12-15T20:14:57.000Z,16.77
2018-12-15T20:17:25.432Z,16.93
2018-12-15T20:19:53.929Z,18.17
2018-12-15T20:22:22.354Z,17.57
2018-12-15T20:24:52.069Z,16.53
2018-12-15T20:27:20.517Z,16.73
2018-12-15T20:29:48.983Z,15.77
2018-12-15T20:32:17.402Z,15.80
2018-12-15T20:34:45.819Z,14.63
2018-12-15T20:37:14.293Z,15.67
2018-12-15T20:39:42.735Z,14.30
2018-12-15T20:42:11.272Z,14.20
2018-12-15T20:44:41.779Z,13.83
2018-12-15T20:47:10.846Z,14.00
2018-12-15T20:49:39.326Z,13.17
2018-12-15T20:52:07.745Z,12.50
2018-12-15T20:54:36.200Z,12.27
2018-12-15T20:57:04.722Z,13.10
2018-12-15T20:59:33.152Z,12.17
2018-12-15T21:02:01.564Z,11.77
2018-12-15T21:04:29.995Z,12.57
2018-12-15T21:06:58.420Z,13.10
2018-12-15T21:09:26.834Z,12.50
2018-12-15T21:11:55.762Z,12.80
2018-12-15T21:14:24.208Z,12.50
2018-12-15T21:16:52.712Z,13.10
2018-12-15T21:19:21.195Z,12.27
2018-12-15T21:21:50.783Z,13.47
2018-12-15T21:24:19.907Z,12.50
2018-12-15T21:26:48.513Z,15.87
2018-12-15T21:29:16.956Z,13.13
2018-12-15T21:31:46.880Z,13.43
2018-12-15T21:34:15.462Z,13.60
2018-12-15T21:36:47.215Z,13.63
2018-12-15T21:39:15.722Z,13.60
2018-12-15T21:41:44.685Z,14.97
2018-12-15T21:44:13.803Z,15.40
2018-12-15T21:46:42.248Z,16.17
2018-12-15T21:49:10.746Z,13.40
2018-12-15T21:51:39.387Z,14.87
2018-12-15T21:54:07.989Z,13.87
2018-12-15T21:56:36.523Z,14.13
2018-12-15T21:59:04.971Z,13.80
2018-12-15T22:01:33.452Z,14.00
2018-12-15T22:04:02.484Z,16.20
2018-12-15T22:06:31.627Z,14.17
2018-12-15T22:09:00.062Z,14.37
2018-12-15T22:11:28.523Z,15.53
2018-12-15T22:13:56.928Z,14.77
2018-12-15T22:16:25.439Z,14.37
2018-12-15T22:18:53.835Z,13.43
2018-12-15T22:21:22.267Z,12.87
2018-12-15T22:23:55.511Z,15.03
2018-12-15T22:26:23.954Z,14.43
2018-12-15T22:28:52.364Z,15.10
2018-12-15T22:31:20.771Z,14.53
2018-12-15T22:33:49.894Z,13.87
2018-12-15T22:36:18.359Z,16.33
2018-12-15T22:38:46.878Z,14.37
2018-12-15T22:41:15.279Z,15.87
2018-12-15T22:43:43.781Z,14.27
2018-12-15T22:46:12.218Z,13.87
2018-12-15T22:48:40.669Z,14.23
2018-12-15T22:51:10.039Z,14.37
2018-12-15T22:53:38.455Z,13.47
2018-12-15T22:56:11.414Z,14.50
2018-12-15T22:58:39.838Z,13.50
2018-12-15T23:01:11.765Z,13.70
2018-12-15T23:03:40.563Z,13.93
2018-12-15T23:06:10.227Z,13.30
2018-12-15T23:08:38.623Z,15.23
2018-12-15T23:11:08.231Z,14.03
2018-12-15T23:13:36.676Z,14.87
2018-12-15T23:16:05.063Z,15.00
2018-12-15T23:18:33.865Z,15.90
2018-12-15T23:21:02.279Z,15.50
2018-12-15T23:23:30.722Z,16.10
2018-12-15T23:25:59.967Z,17.50
2018-12-15T23:28:28.394Z,16.43
2018-12-15T23:30:56.808Z,18.00
2018-12-15T23:33:25.299Z,17.07
2018-12-15T23:35:53.693Z,19.47
2018-12-15T23:38:22.107Z,18.33
2018-12-15T23:40:50.512Z,18.63
2018-12-15T23:43:19.559Z,18.87
2018-12-15T23:45:48.284Z,18.30
2018-12-15T23:48:17.002Z,19.80
2018-12-15T23:50:46.541Z,18.67
2018-12-15T23:53:15.398Z,18.77
2018-12-15T23:55:45.480Z,20.07
2018-12-15T23:58:13.998Z,19.43
